sensor_id;sensor_type;location;lat;lon;timestamp;P1;durP1;ratioP1;P2;durP2;ratioP2
80241;SDS011;69556;45.004;7.532;2024-03-02T00:00:06;14.35;;;9.43;;
80241;SDS011;69556;45.004;7.532;2024-03-02T00:05:10;17.48;;;9.55;;
80241;SDS011;69556;45.004;7.532;2024-03-02T00:07:39;13.52;;;9.27;;
80241;SDS011;69556;45.004;7.532;2024-03-02T00:10:09;15.68;;;9.32;;
80241;SDS011;69556;45.004;7.532;2024-03-02T00:12:37;14.77;;;8.95;;
80241;SDS011;69556;45.004;7.532;2024-03-02T00:17:46;13.52;;;9.18;;
80241;SDS011;69556;45.004;7.532;2024-03-02T00:20:18;14.68;;;8.57;;
80241;SDS011;69556;45.004;7.532;2024-03-02T00:22:47;14.65;;;9.15;;
80241;SDS011;69556;45.004;7.532;2024-03-02T00:25:12;13.45;;;9.02;;
80241;SDS011;69556;45.004;7.532;2024-03-02T00:27:37;13.60;;;7.80;;
80241;SDS011;69556;45.004;7.532;2024-03-02T00:30:06;13.23;;;8.20;;
80241;SDS011;69556;45.004;7.532;2024-03-02T00:33:07;13.50;;;7.97;;
80241;SDS011;69556;45.004;7.532;2024-03-02T00:35:32;10.23;;;7.50;;
80241;SDS011;69556;45.004;7.532;2024-03-02T00:37:58;12.13;;;8.70;;
80241;SDS011;69556;45.004;7.532;2024-03-02T00:40:28;13.30;;;8.30;;
80241;SDS011;69556;45.004;7.532;2024-03-02T00:42:55;15.07;;;9.00;;
80241;SDS011;69556;45.004;7.532;2024-03-02T00:45:21;12.77;;;8.50;;
80241;SDS011;69556;45.004;7.532;2024-03-02T00:47:46;13.27;;;7.85;;
80241;SDS011;69556;45.004;7.532;2024-03-02T00:50:12;13.77;;;7.95;;
80241;SDS011;69556;45.004;7.532;2024-03-02T00:52:38;11.35;;;9.15;;
80241;SDS011;69556;45.004;7.532;2024-03-02T00:55:05;11.07;;;8.63;;
80241;SDS011;69556;45.004;7.532;2024-03-02T00:57:31;16.08;;;9.60;;
80241;SDS011;69556;45.004;7.532;2024-03-02T00:59:59;12.38;;;8.38;;
80241;SDS011;69556;45.004;7.532;2024-03-02T01:02:25;12.15;;;8.43;;
80241;SDS011;69556;45.004;7.532;2024-03-02T01:04:50;13.53;;;8.60;;
80241;SDS011;69556;45.004;7.532;2024-03-02T01:07:16;12.68;;;9.07;;
80241;SDS011;69556;45.004;7.532;2024-03-02T01:09:41;12.20;;;8.43;;
80241;SDS011;69556;45.004;7.532;2024-03-02T01:12:06;14.02;;;8.70;;
80241;SDS011;69556;45.004;7.532;2024-03-02T01:14:32;13.65;;;8.65;;
80241;SDS011;69556;45.004;7.532;2024-03-02T01:16:57;15.90;;;7.82;;
80241;SDS011;69556;45.004;7.532;2024-03-02T01:19:23;17.60;;;8.32;;
80241;SDS011;69556;45.004;7.532;2024-03-02T01:21:48;25.08;;;8.70;;
80241;SDS011;69556;45.004;7.532;2024-03-02T01:24:15;21.42;;;9.55;;
80241;SDS011;69556;45.004;7.532;2024-03-02T01:26:41;24.40;;;9.38;;
80241;SDS011;69556;45.004;7.532;2024-03-02T01:29:07;25.67;;;8.95;;
80241;SDS011;69556;45.004;7.532;2024-03-02T01:31:32;24.90;;;10.15;;
80241;SDS011;69556;45.004;7.532;2024-03-02T01:33:58;21.83;;;10.27;;
80241;SDS011;69556;45.004;7.532;2024-03-02T01:36:23;16.97;;;8.13;;
80241;SDS011;69556;45.004;7.532;2024-03-02T01:38:49;17.40;;;8.70;;
80241;SDS011;69556;45.004;7.532;2024-03-02T01:41:15;21.15;;;8.48;;
80241;SDS011;69556;45.004;7.532;2024-03-02T01:43:40;16.98;;;8.52;;
80241;SDS011;69556;45.004;7.532;2024-03-02T01:46:06;17.70;;;9.02;;
80241;SDS011;69556;45.004;7.532;2024-03-02T01:48:31;18.13;;;8.20;;
80241;SDS011;69556;45.004;7.532;2024-03-02T01:50:56;15.93;;;8.17;;
80241;SDS011;69556;45.004;7.532;2024-03-02T01:53:22;15.52;;;9.13;;
80241;SDS011;69556;45.004;7.532;2024-03-02T01:55:48;14.45;;;8.85;;
80241;SDS011;69556;45.004;7.532;2024-03-02T01:58:13;18.27;;;8.35;;
80241;SDS011;69556;45.004;7.532;2024-03-02T02:00:39;15.15;;;9.85;;
80241;SDS011;69556;45.004;7.532;2024-03-02T02:03:04;16.98;;;8.55;;
80241;SDS011;69556;45.004;7.532;2024-03-02T02:05:31;16.27;;;7.72;;
80241;SDS011;69556;45.004;7.532;2024-03-02T02:07:57;12.82;;;7.75;;
80241;SDS011;69556;45.004;7.532;2024-03-02T02:10:23;14.15;;;8.38;;
80241;SDS011;69556;45.004;7.532;2024-03-02T02:12:49;12.55;;;7.95;;
80241;SDS011;69556;45.004;7.532;2024-03-02T02:15:30;13.43;;;7.63;;
80241;SDS011;69556;45.004;7.532;2024-03-02T02:17:56;13.20;;;7.68;;
80241;SDS011;69556;45.004;7.532;2024-03-02T02:20:23;10.90;;;7.43;;
80241;SDS011;69556;45.004;7.532;2024-03-02T02:22:56;10.43;;;6.45;;
80241;SDS011;69556;45.004;7.532;2024-03-02T02:25:22;8.98;;;7.07;;
80241;SDS011;69556;45.004;7.532;2024-03-02T02:27:47;10.80;;;6.75;;
80241;SDS011;69556;45.004;7.532;2024-03-02T02:30:13;9.40;;;6.23;;
80241;SDS011;69556;45.004;7.532;2024-03-02T02:32:38;7.90;;;5.88;;
80241;SDS011;69556;45.004;7.532;2024-03-02T02:35:04;9.80;;;6.53;;
80241;SDS011;69556;45.004;7.532;2024-03-02T02:37:29;8.85;;;6.05;;
80241;SDS011;69556;45.004;7.532;2024-03-02T02:39:55;8.18;;;5.78;;
80241;SDS011;69556;45.004;7.532;2024-03-02T02:42:20;10.23;;;5.50;;
80241;SDS011;69556;45.004;7.532;2024-03-02T02:44:45;10.43;;;5.60;;
80241;SDS011;69556;45.004;7.532;2024-03-02T02:47:11;8.60;;;5.67;;
80241;SDS011;69556;45.004;7.532;2024-03-02T02:49:36;9.03;;;4.57;;
80241;SDS011;69556;45.004;7.532;2024-03-02T02:52:01;6.10;;;4.83;;
80241;SDS011;69556;45.004;7.532;2024-03-02T02:54:27;10.67;;;5.60;;
80241;SDS011;69556;45.004;7.532;2024-03-02T02:56:52;9.67;;;5.17;;
80241;SDS011;69556;45.004;7.532;2024-03-02T02:59:17;9.48;;;4.75;;
80241;SDS011;69556;45.004;7.532;2024-03-02T03:01:43;7.20;;;4.33;;
80241;SDS011;69556;45.004;7.532;2024-03-02T03:04:08;7.38;;;4.78;;
80241;SDS011;69556;45.004;7.532;2024-03-02T03:06:34;9.83;;;4.63;;
80241;SDS011;69556;45.004;7.532;2024-03-02T03:08:59;6.97;;;4.63;;
80241;SDS011;69556;45.004;7.532;2024-03-02T03:11:24;10.00;;;4.63;;
80241;SDS011;69556;45.004;7.532;2024-03-02T03:13:51;10.68;;;4.85;;
80241;SDS011;69556;45.004;7.532;2024-03-02T03:16:18;9.10;;;4.07;;
80241;SDS011;69556;45.004;7.532;2024-03-02T03:18:43;6.75;;;3.97;;
80241;SDS011;69556;45.004;7.532;2024-03-02T03:21:08;7.57;;;4.40;;
80241;SDS011;69556;45.004;7.532;2024-03-02T03:23:33;6.13;;;3.67;;
80241;SDS011;69556;45.004;7.532;2024-03-02T03:25:59;5.13;;;3.90;;
80241;SDS011;69556;45.004;7.532;2024-03-02T03:28:24;6.07;;;3.63;;
80241;SDS011;69556;45.004;7.532;2024-03-02T03:30:49;6.23;;;4.07;;
80241;SDS011;69556;45.004;7.532;2024-03-02T03:33:15;6.77;;;3.10;;
80241;SDS011;69556;45.004;7.532;2024-03-02T03:35:40;8.10;;;3.10;;
80241;SDS011;69556;45.004;7.532;2024-03-02T03:38:05;8.98;;;3.35;;
80241;SDS011;69556;45.004;7.532;2024-03-02T03:40:31;5.30;;;3.65;;
80241;SDS011;69556;45.004;7.532;2024-03-02T03:42:57;3.42;;;2.72;;
80241;SDS011;69556;45.004;7.532;2024-03-02T03:45:23;4.18;;;3.10;;
80241;SDS011;69556;45.004;7.532;2024-03-02T03:47:50;8.65;;;3.28;;
80241;SDS011;69556;45.004;7.532;2024-03-02T03:50:16;7.50;;;2.70;;
80241;SDS011;69556;45.004;7.532;2024-03-02T03:52:41;5.30;;;2.88;;
80241;SDS011;69556;45.004;7.532;2024-03-02T03:55:07;4.87;;;3.03;;
80241;SDS011;69556;45.004;7.532;2024-03-02T03:57:32;5.82;;;3.30;;
80241;SDS011;69556;45.004;7.532;2024-03-02T03:59:57;6.30;;;2.97;;
80241;SDS011;69556;45.004;7.532;2024-03-02T04:02:23;3.70;;;2.63;;
80241;SDS011;69556;45.004;7.532;2024-03-02T04:04:49;3.83;;;2.83;;
80241;SDS011;69556;45.004;7.532;2024-03-02T04:07:15;4.97;;;2.90;;
80241;SDS011;69556;45.004;7.532;2024-03-02T04:09:40;4.07;;;2.70;;
80241;SDS011;69556;45.004;7.532;2024-03-02T04:12:06;7.72;;;3.30;;
80241;SDS011;69556;45.004;7.532;2024-03-02T04:14:31;4.43;;;3.15;;
80241;SDS011;69556;45.004;7.532;2024-03-02T04:16:56;6.73;;;3.10;;
80241;SDS011;69556;45.004;7.532;2024-03-02T04:19:22;6.30;;;3.13;;
80241;SDS011;69556;45.004;7.532;2024-03-02T04:21:47;5.50;;;3.20;;
80241;SDS011;69556;45.004;7.532;2024-03-02T04:24:12;7.27;;;3.97;;
80241;SDS011;69556;45.004;7.532;2024-03-02T04:26:38;5.30;;;3.30;;
80241;SDS011;69556;45.004;7.532;2024-03-02T04:29:03;5.47;;;3.37;;
80241;SDS011;69556;45.004;7.532;2024-03-02T04:31:28;4.55;;;3.30;;
80241;SDS011;69556;45.004;7.532;2024-03-02T04:33:54;7.93;;;3.10;;
80241;SDS011;69556;45.004;7.532;2024-03-02T04:36:19;5.40;;;3.27;;
80241;SDS011;69556;45.004;7.532;2024-03-02T04:38:46;5.03;;;3.20;;
80241;SDS011;69556;45.004;7.532;2024-03-02T04:41:11;6.65;;;4.47;;
80241;SDS011;69556;45.004;7.532;2024-03-02T04:43:36;6.97;;;4.40;;
80241;SDS011;69556;45.004;7.532;2024-03-02T04:46:02;6.70;;;4.65;;
80241;SDS011;69556;45.004;7.532;2024-03-02T04:48:27;6.97;;;4.88;;
80241;SDS011;69556;45.004;7.532;2024-03-02T04:50:53;5.95;;;4.00;;
80241;SDS011;69556;45.004;7.532;2024-03-02T04:53:18;5.47;;;3.75;;
80241;SDS011;69556;45.004;7.532;2024-03-02T04:55:43;5.23;;;3.43;;
80241;SDS011;69556;45.004;7.532;2024-03-02T04:58:09;5.33;;;3.60;;
80241;SDS011;69556;45.004;7.532;2024-03-02T05:00:34;4.97;;;2.90;;
80241;SDS011;69556;45.004;7.532;2024-03-02T05:03:00;4.45;;;2.97;;
80241;SDS011;69556;45.004;7.532;2024-03-02T05:05:26;6.88;;;3.25;;
80241;SDS011;69556;45.004;7.532;2024-03-02T05:07:51;4.15;;;2.92;;
80241;SDS011;69556;45.004;7.532;2024-03-02T05:10:17;5.50;;;2.97;;
80241;SDS011;69556;45.004;7.532;2024-03-02T05:12:42;7.63;;;3.10;;
80241;SDS011;69556;45.004;7.532;2024-03-02T05:15:08;4.85;;;2.95;;
80241;SDS011;69556;45.004;7.532;2024-03-02T05:17:35;4.65;;;2.72;;
80241;SDS011;69556;45.004;7.532;2024-03-02T05:20:01;5.00;;;3.10;;
80241;SDS011;69556;45.004;7.532;2024-03-02T05:22:27;5.45;;;3.22;;
80241;SDS011;69556;45.004;7.532;2024-03-02T05:24:52;6.55;;;3.10;;
80241;SDS011;69556;45.004;7.532;2024-03-02T05:27:17;4.57;;;2.80;;
80241;SDS011;69556;45.004;7.532;2024-03-02T05:29:43;6.17;;;3.07;;
80241;SDS011;69556;45.004;7.532;2024-03-02T05:32:08;5.87;;;2.93;;
80241;SDS011;69556;45.004;7.532;2024-03-02T05:34:33;7.63;;;2.95;;
80241;SDS011;69556;45.004;7.532;2024-03-02T05:37:00;5.30;;;2.95;;
80241;SDS011;69556;45.004;7.532;2024-03-02T05:39:26;4.55;;;2.53;;
80241;SDS011;69556;45.004;7.532;2024-03-02T05:41:51;5.43;;;2.73;;
80241;SDS011;69556;45.004;7.532;2024-03-02T05:44:16;7.77;;;3.30;;
80241;SDS011;69556;45.004;7.532;2024-03-02T05:46:43;4.15;;;2.72;;
80241;SDS011;69556;45.004;7.532;2024-03-02T05:49:09;5.68;;;2.85;;
80241;SDS011;69556;45.004;7.532;2024-03-02T05:51:34;6.43;;;3.20;;
80241;SDS011;69556;45.004;7.532;2024-03-02T05:54:00;5.53;;;3.00;;
80241;SDS011;69556;45.004;7.532;2024-03-02T05:56:25;4.82;;;2.92;;
80241;SDS011;69556;45.004;7.532;2024-03-02T05:58:50;6.43;;;3.13;;
80241;SDS011;69556;45.004;7.532;2024-03-02T06:01:34;9.77;;;3.70;;
80241;SDS011;69556;45.004;7.532;2024-03-02T06:04:00;6.53;;;3.83;;
80241;SDS011;69556;45.004;7.532;2024-03-02T06:06:25;8.70;;;4.57;;
80241;SDS011;69556;45.004;7.532;2024-03-02T06:08:51;6.30;;;4.18;;
80241;SDS011;69556;45.004;7.532;2024-03-02T06:11:17;8.20;;;4.88;;
80241;SDS011;69556;45.004;7.532;2024-03-02T06:13:44;5.40;;;3.58;;
80241;SDS011;69556;45.004;7.532;2024-03-02T06:16:09;5.87;;;3.90;;
80241;SDS011;69556;45.004;7.532;2024-03-02T06:18:35;6.47;;;4.13;;
80241;SDS011;69556;45.004;7.532;2024-03-02T06:21:00;5.88;;;3.80;;
80241;SDS011;69556;45.004;7.532;2024-03-02T06:23:28;9.43;;;4.30;;
80241;SDS011;69556;45.004;7.532;2024-03-02T06:25:54;7.95;;;4.28;;
80241;SDS011;69556;45.004;7.532;2024-03-02T06:28:19;6.95;;;4.38;;
80241;SDS011;69556;45.004;7.532;2024-03-02T06:30:45;11.13;;;4.93;;
80241;SDS011;69556;45.004;7.532;2024-03-02T06:33:11;8.57;;;5.25;;
80241;SDS011;69556;45.004;7.532;2024-03-02T06:35:36;8.77;;;5.05;;
80241;SDS011;69556;45.004;7.532;2024-03-02T06:38:02;6.75;;;4.65;;
80241;SDS011;69556;45.004;7.532;2024-03-02T06:40:27;10.93;;;4.97;;
80241;SDS011;69556;45.004;7.532;2024-03-02T06:42:52;9.63;;;5.15;;
80241;SDS011;69556;45.004;7.532;2024-03-02T06:45:18;9.63;;;6.17;;
80241;SDS011;69556;45.004;7.532;2024-03-02T06:47:43;10.97;;;5.97;;
80241;SDS011;69556;45.004;7.532;2024-03-02T06:50:09;12.60;;;6.68;;
80241;SDS011;69556;45.004;7.532;2024-03-02T06:52:34;10.80;;;6.10;;
80241;SDS011;69556;45.004;7.532;2024-03-02T06:55:00;8.68;;;5.95;;
80241;SDS011;69556;45.004;7.532;2024-03-02T06:57:26;10.77;;;4.93;;
80241;SDS011;69556;45.004;7.532;2024-03-02T06:59:51;9.13;;;4.88;;
80241;SDS011;69556;45.004;7.532;2024-03-02T07:02:19;9.27;;;5.57;;
80241;SDS011;69556;45.004;7.532;2024-03-02T07:04:45;10.55;;;5.25;;
80241;SDS011;69556;45.004;7.532;2024-03-02T07:07:11;9.13;;;5.25;;
80241;SDS011;69556;45.004;7.532;2024-03-02T07:09:37;7.78;;;4.75;;
80241;SDS011;69556;45.004;7.532;2024-03-02T07:12:02;7.53;;;4.82;;
80241;SDS011;69556;45.004;7.532;2024-03-02T07:14:28;12.10;;;6.93;;
80241;SDS011;69556;45.004;7.532;2024-03-02T07:17:13;10.18;;;6.38;;
80241;SDS011;69556;45.004;7.532;2024-03-02T07:19:38;11.67;;;6.53;;
80241;SDS011;69556;45.004;7.532;2024-03-02T07:22:07;12.50;;;7.40;;
80241;SDS011;69556;45.004;7.532;2024-03-02T07:24:38;10.70;;;7.28;;
80241;SDS011;69556;45.004;7.532;2024-03-02T07:27:07;10.80;;;6.88;;
80241;SDS011;69556;45.004;7.532;2024-03-02T07:29:37;9.88;;;6.70;;
80241;SDS011;69556;45.004;7.532;2024-03-02T07:32:02;13.52;;;9.20;;
80241;SDS011;69556;45.004;7.532;2024-03-02T07:34:28;14.63;;;9.48;;
80241;SDS011;69556;45.004;7.532;2024-03-02T07:36:53;17.20;;;11.15;;
80241;SDS011;69556;45.004;7.532;2024-03-02T07:39:19;13.30;;;10.65;;
80241;SDS011;69556;45.004;7.532;2024-03-02T07:41:44;14.80;;;9.88;;
80241;SDS011;69556;45.004;7.532;2024-03-02T07:44:10;13.43;;;9.60;;
80241;SDS011;69556;45.004;7.532;2024-03-02T07:46:39;14.82;;;10.15;;
80241;SDS011;69556;45.004;7.532;2024-03-02T07:49:08;12.95;;;8.70;;
80241;SDS011;69556;45.004;7.532;2024-03-02T07:51:34;12.15;;;7.88;;
80241;SDS011;69556;45.004;7.532;2024-03-02T07:53:59;12.00;;;7.63;;
80241;SDS011;69556;45.004;7.532;2024-03-02T07:56:25;12.13;;;8.18;;
80241;SDS011;69556;45.004;7.532;2024-03-02T07:58:51;12.95;;;7.65;;
80241;SDS011;69556;45.004;7.532;2024-03-02T08:01:16;12.90;;;7.68;;
80241;SDS011;69556;45.004;7.532;2024-03-02T08:03:42;11.05;;;7.97;;
80241;SDS011;69556;45.004;7.532;2024-03-02T08:06:12;10.52;;;6.43;;
80241;SDS011;69556;45.004;7.532;2024-03-02T08:08:39;12.38;;;7.30;;
80241;SDS011;69556;45.004;7.532;2024-03-02T08:11:05;10.95;;;7.25;;
80241;SDS011;69556;45.004;7.532;2024-03-02T08:13:30;12.30;;;7.80;;
80241;SDS011;69556;45.004;7.532;2024-03-02T08:15:55;11.50;;;7.13;;
80241;SDS011;69556;45.004;7.532;2024-03-02T08:18:21;12.83;;;8.13;;
80241;SDS011;69556;45.004;7.532;2024-03-02T08:20:47;12.15;;;7.60;;
80241;SDS011;69556;45.004;7.532;2024-03-02T08:23:13;11.32;;;7.68;;
80241;SDS011;69556;45.004;7.532;2024-03-02T08:25:38;10.00;;;7.95;;
80241;SDS011;69556;45.004;7.532;2024-03-02T08:28:03;9.10;;;7.15;;
80241;SDS011;69556;45.004;7.532;2024-03-02T08:30:29;10.13;;;7.05;;
80241;SDS011;69556;45.004;7.532;2024-03-02T08:32:55;14.23;;;8.40;;
80241;SDS011;69556;45.004;7.532;2024-03-02T08:35:20;10.97;;;8.73;;
80241;SDS011;69556;45.004;7.532;2024-03-02T08:37:47;13.80;;;8.48;;
80241;SDS011;69556;45.004;7.532;2024-03-02T08:40:12;12.82;;;7.95;;
80241;SDS011;69556;45.004;7.532;2024-03-02T08:42:39;17.30;;;9.07;;
80241;SDS011;69556;45.004;7.532;2024-03-02T08:45:04;10.40;;;7.75;;
80241;SDS011;69556;45.004;7.532;2024-03-02T08:47:31;13.13;;;8.25;;
80241;SDS011;69556;45.004;7.532;2024-03-02T08:49:56;11.18;;;7.88;;
80241;SDS011;69556;45.004;7.532;2024-03-02T08:52:21;12.73;;;9.07;;
80241;SDS011;69556;45.004;7.532;2024-03-02T08:54:47;19.50;;;9.30;;
80241;SDS011;69556;45.004;7.532;2024-03-02T08:57:12;11.23;;;8.70;;
80241;SDS011;69556;45.004;7.532;2024-03-02T08:59:37;13.53;;;9.17;;
80241;SDS011;69556;45.004;7.532;2024-03-02T09:02:03;13.23;;;9.98;;
80241;SDS011;69556;45.004;7.532;2024-03-02T09:04:29;12.75;;;8.75;;
80241;SDS011;69556;45.004;7.532;2024-03-02T09:06:54;16.85;;;10.57;;
80241;SDS011;69556;45.004;7.532;2024-03-02T09:09:20;18.85;;;11.32;;
80241;SDS011;69556;45.004;7.532;2024-03-02T09:11:46;15.63;;;11.27;;
80241;SDS011;69556;45.004;7.532;2024-03-02T09:14:11;17.55;;;13.25;;
80241;SDS011;69556;45.004;7.532;2024-03-02T09:16:37;24.02;;;15.15;;
80241;SDS011;69556;45.004;7.532;2024-03-02T09:19:03;24.45;;;16.52;;
80241;SDS011;69556;45.004;7.532;2024-03-02T09:21:28;21.17;;;15.02;;
80241;SDS011;69556;45.004;7.532;2024-03-02T09:23:55;20.80;;;13.52;;
80241;SDS011;69556;45.004;7.532;2024-03-02T09:26:21;12.75;;;9.00;;
80241;SDS011;69556;45.004;7.532;2024-03-02T09:28:47;12.57;;;7.88;;
80241;SDS011;69556;45.004;7.532;2024-03-02T09:31:13;10.13;;;6.90;;
80241;SDS011;69556;45.004;7.532;2024-03-02T09:33:38;12.25;;;7.05;;
80241;SDS011;69556;45.004;7.532;2024-03-02T09:36:06;9.13;;;5.93;;
80241;SDS011;69556;45.004;7.532;2024-03-02T09:38:41;12.45;;;6.78;;
80241;SDS011;69556;45.004;7.532;2024-03-02T09:41:07;9.53;;;6.70;;
80241;SDS011;69556;45.004;7.532;2024-03-02T09:43:32;8.27;;;5.40;;
80241;SDS011;69556;45.004;7.532;2024-03-02T09:45:58;10.38;;;6.47;;
80241;SDS011;69556;45.004;7.532;2024-03-02T09:48:23;7.53;;;5.63;;
80241;SDS011;69556;45.004;7.532;2024-03-02T09:50:49;8.43;;;5.63;;
80241;SDS011;69556;45.004;7.532;2024-03-02T09:53:14;6.93;;;5.18;;
80241;SDS011;69556;45.004;7.532;2024-03-02T09:55:41;6.90;;;5.53;;
80241;SDS011;69556;45.004;7.532;2024-03-02T09:58:11;8.32;;;5.03;;
80241;SDS011;69556;45.004;7.532;2024-03-02T10:00:37;10.65;;;5.10;;
80241;SDS011;69556;45.004;7.532;2024-03-02T10:03:02;7.47;;;5.18;;
80241;SDS011;69556;45.004;7.532;2024-03-02T10:05:29;8.50;;;5.10;;
80241;SDS011;69556;45.004;7.532;2024-03-02T10:07:58;8.23;;;5.25;;
80241;SDS011;69556;45.004;7.532;2024-03-02T10:10:26;8.20;;;5.13;;
80241;SDS011;69556;45.004;7.532;2024-03-02T10:13:09;10.95;;;5.50;;
80241;SDS011;69556;45.004;7.532;2024-03-02T10:15:36;9.45;;;5.40;;
80241;SDS011;69556;45.004;7.532;2024-03-02T10:18:12;9.55;;;5.30;;
80241;SDS011;69556;45.004;7.532;2024-03-02T10:20:39;8.52;;;5.53;;
80241;SDS011;69556;45.004;7.532;2024-03-02T10:23:11;8.77;;;5.45;;
80241;SDS011;69556;45.004;7.532;2024-03-02T10:25:38;8.15;;;5.68;;
80241;SDS011;69556;45.004;7.532;2024-03-02T10:28:04;9.02;;;5.88;;
80241;SDS011;69556;45.004;7.532;2024-03-02T10:30:31;9.13;;;6.47;;
80241;SDS011;69556;45.004;7.532;2024-03-02T10:32:57;7.88;;;5.85;;
80241;SDS011;69556;45.004;7.532;2024-03-02T10:35:22;9.80;;;6.07;;
80241;SDS011;69556;45.004;7.532;2024-03-02T10:37:48;11.25;;;6.05;;
80241;SDS011;69556;45.004;7.532;2024-03-02T10:40:14;8.68;;;6.15;;
80241;SDS011;69556;45.004;7.532;2024-03-02T10:42:40;11.07;;;6.05;;
80241;SDS011;69556;45.004;7.532;2024-03-02T10:45:07;9.80;;;5.50;;
80241;SDS011;69556;45.004;7.532;2024-03-02T10:47:35;10.02;;;6.50;;
80241;SDS011;69556;45.004;7.532;2024-03-02T10:50:03;13.73;;;6.75;;
80241;SDS011;69556;45.004;7.532;2024-03-02T10:52:33;6.88;;;5.57;;
80241;SDS011;69556;45.004;7.532;2024-03-02T10:54:59;6.68;;;5.53;;
80241;SDS011;69556;45.004;7.532;2024-03-02T10:57:25;9.10;;;6.60;;
80241;SDS011;69556;45.004;7.532;2024-03-02T10:59:57;10.20;;;5.15;;
80241;SDS011;69556;45.004;7.532;2024-03-02T11:02:27;7.65;;;5.30;;
80241;SDS011;69556;45.004;7.532;2024-03-02T11:04:55;9.57;;;5.75;;
80241;SDS011;69556;45.004;7.532;2024-03-02T11:07:22;7.18;;;4.70;;
80241;SDS011;69556;45.004;7.532;2024-03-02T11:09:54;7.50;;;5.70;;
80241;SDS011;69556;45.004;7.532;2024-03-02T11:15:01;8.57;;;6.03;;
80241;SDS011;69556;45.004;7.532;2024-03-02T11:17:30;8.27;;;5.47;;
80241;SDS011;69556;45.004;7.532;2024-03-02T11:19:56;9.45;;;5.53;;
80241;SDS011;69556;45.004;7.532;2024-03-02T11:22:22;6.65;;;4.95;;
80241;SDS011;69556;45.004;7.532;2024-03-02T11:24:48;8.38;;;5.55;;
80241;SDS011;69556;45.004;7.532;2024-03-02T11:27:20;8.05;;;5.22;;
80241;SDS011;69556;45.004;7.532;2024-03-02T11:30:14;7.72;;;5.10;;
80241;SDS011;69556;45.004;7.532;2024-03-02T11:33:01;4.85;;;3.50;;
80241;SDS011;69556;45.004;7.532;2024-03-02T11:35:51;6.28;;;4.15;;
80241;SDS011;69556;45.004;7.532;2024-03-02T11:38:17;6.20;;;4.03;;
80241;SDS011;69556;45.004;7.532;2024-03-02T11:40:44;5.85;;;4.22;;
80241;SDS011;69556;45.004;7.532;2024-03-02T11:43:09;8.38;;;5.32;;
80241;SDS011;69556;45.004;7.532;2024-03-02T11:45:36;6.75;;;5.00;;
80241;SDS011;69556;45.004;7.532;2024-03-02T11:48:05;10.57;;;5.82;;
80241;SDS011;69556;45.004;7.532;2024-03-02T11:50:35;7.82;;;5.95;;
80241;SDS011;69556;45.004;7.532;2024-03-02T11:53:05;11.07;;;5.68;;
80241;SDS011;69556;45.004;7.532;2024-03-02T11:55:37;7.03;;;5.25;;
80241;SDS011;69556;45.004;7.532;2024-03-02T11:58:04;7.60;;;5.40;;
80241;SDS011;69556;45.004;7.532;2024-03-02T12:00:30;8.73;;;6.32;;
80241;SDS011;69556;45.004;7.532;2024-03-02T12:03:00;10.05;;;6.50;;
80241;SDS011;69556;45.004;7.532;2024-03-02T12:05:26;6.15;;;4.28;;
80241;SDS011;69556;45.004;7.532;2024-03-02T12:07:59;7.22;;;4.15;;
80241;SDS011;69556;45.004;7.532;2024-03-02T12:10:26;3.97;;;3.28;;
80241;SDS011;69556;45.004;7.532;2024-03-02T12:13:02;3.95;;;3.08;;
80241;SDS011;69556;45.004;7.532;2024-03-02T12:15:32;5.25;;;3.67;;
80241;SDS011;69556;45.004;7.532;2024-03-02T12:17:59;5.28;;;3.35;;
80241;SDS011;69556;45.004;7.532;2024-03-02T12:20:27;8.85;;;4.25;;
80241;SDS011;69556;45.004;7.532;2024-03-02T12:22:54;6.43;;;4.07;;
80241;SDS011;69556;45.004;7.532;2024-03-02T12:25:21;6.43;;;4.07;;
80241;SDS011;69556;45.004;7.532;2024-03-02T12:27:47;6.00;;;4.10;;
80241;SDS011;69556;45.004;7.532;2024-03-02T12:30:19;5.18;;;3.45;;
80241;SDS011;69556;45.004;7.532;2024-03-02T12:32:45;4.15;;;3.63;;
80241;SDS011;69556;45.004;7.532;2024-03-02T12:35:11;5.82;;;4.32;;
80241;SDS011;69556;45.004;7.532;2024-03-02T12:40:09;5.65;;;3.78;;
80241;SDS011;69556;45.004;7.532;2024-03-02T12:42:36;3.80;;;2.90;;
80241;SDS011;69556;45.004;7.532;2024-03-02T12:45:01;3.60;;;2.80;;
80241;SDS011;69556;45.004;7.532;2024-03-02T12:47:27;3.60;;;2.65;;
80241;SDS011;69556;45.004;7.532;2024-03-02T12:49:52;4.45;;;2.78;;
80241;SDS011;69556;45.004;7.532;2024-03-02T12:52:19;3.15;;;2.10;;
80241;SDS011;69556;45.004;7.532;2024-03-02T12:54:44;5.18;;;2.53;;
80241;SDS011;69556;45.004;7.532;2024-03-02T12:57:10;3.30;;;2.10;;
80241;SDS011;69556;45.004;7.532;2024-03-02T12:59:35;2.20;;;1.70;;
80241;SDS011;69556;45.004;7.532;2024-03-02T13:02:02;5.28;;;1.70;;
80241;SDS011;69556;45.004;7.532;2024-03-02T13:04:28;2.88;;;1.70;;
80241;SDS011;69556;45.004;7.532;2024-03-02T13:06:54;2.08;;;1.67;;
80241;SDS011;69556;45.004;7.532;2024-03-02T13:09:22;1.85;;;1.35;;
80241;SDS011;69556;45.004;7.532;2024-03-02T13:11:48;2.13;;;1.15;;
80241;SDS011;69556;45.004;7.532;2024-03-02T13:14:14;2.22;;;1.73;;
80241;SDS011;69556;45.004;7.532;2024-03-02T13:16:40;1.08;;;1.05;;
80241;SDS011;69556;45.004;7.532;2024-03-02T13:19:09;1.60;;;1.33;;
80241;SDS011;69556;45.004;7.532;2024-03-02T13:21:35;1.40;;;1.30;;
80241;SDS011;69556;45.004;7.532;2024-03-02T13:24:01;1.40;;;1.20;;
80241;SDS011;69556;45.004;7.532;2024-03-02T13:26:26;1.70;;;1.33;;
80241;SDS011;69556;45.004;7.532;2024-03-02T13:28:52;1.92;;;1.70;;
80241;SDS011;69556;45.004;7.532;2024-03-02T13:31:18;3.72;;;1.65;;
80241;SDS011;69556;45.004;7.532;2024-03-02T13:33:43;2.27;;;1.73;;
80241;SDS011;69556;45.004;7.532;2024-03-02T13:36:08;3.38;;;1.85;;
80241;SDS011;69556;45.004;7.532;2024-03-02T13:38:34;5.30;;;2.47;;
80241;SDS011;69556;45.004;7.532;2024-03-02T13:41:00;3.75;;;2.40;;
80241;SDS011;69556;45.004;7.532;2024-03-02T13:43:26;6.57;;;2.50;;
80241;SDS011;69556;45.004;7.532;2024-03-02T13:45:52;4.63;;;2.40;;
80241;SDS011;69556;45.004;7.532;2024-03-02T13:48:18;2.55;;;2.22;;
80241;SDS011;69556;45.004;7.532;2024-03-02T13:50:44;3.10;;;2.30;;
80241;SDS011;69556;45.004;7.532;2024-03-02T13:53:10;3.05;;;2.50;;
80241;SDS011;69556;45.004;7.532;2024-03-02T13:55:36;3.67;;;2.25;;
80241;SDS011;69556;45.004;7.532;2024-03-02T13:58:02;3.30;;;2.25;;
80241;SDS011;69556;45.004;7.532;2024-03-02T14:00:28;2.53;;;2.05;;
80241;SDS011;69556;45.004;7.532;2024-03-02T14:02:54;3.17;;;2.30;;
80241;SDS011;69556;45.004;7.532;2024-03-02T14:05:19;3.33;;;2.25;;
80241;SDS011;69556;45.004;7.532;2024-03-02T14:07:45;3.05;;;2.25;;
80241;SDS011;69556;45.004;7.532;2024-03-02T14:10:10;3.30;;;2.47;;
80241;SDS011;69556;45.004;7.532;2024-03-02T14:12:36;3.30;;;2.20;;
80241;SDS011;69556;45.004;7.532;2024-03-02T14:15:02;2.95;;;2.22;;
80241;SDS011;69556;45.004;7.532;2024-03-02T14:17:28;3.50;;;2.58;;
80241;SDS011;69556;45.004;7.532;2024-03-02T14:19:54;4.70;;;2.83;;
80241;SDS011;69556;45.004;7.532;2024-03-02T14:22:19;4.88;;;3.50;;
80241;SDS011;69556;45.004;7.532;2024-03-02T14:24:45;4.40;;;3.03;;
80241;SDS011;69556;45.004;7.532;2024-03-02T14:27:11;3.70;;;2.92;;
80241;SDS011;69556;45.004;7.532;2024-03-02T14:29:38;3.17;;;2.20;;
80241;SDS011;69556;45.004;7.532;2024-03-02T14:32:05;5.55;;;2.65;;
80241;SDS011;69556;45.004;7.532;2024-03-02T14:34:31;5.38;;;3.60;;
80241;SDS011;69556;45.004;7.532;2024-03-02T14:36:56;3.53;;;2.63;;
80241;SDS011;69556;45.004;7.532;2024-03-02T14:39:21;4.00;;;3.00;;
80241;SDS011;69556;45.004;7.532;2024-03-02T14:41:47;3.75;;;2.50;;
80241;SDS011;69556;45.004;7.532;2024-03-02T14:44:13;3.33;;;2.58;;
80241;SDS011;69556;45.004;7.532;2024-03-02T14:46:40;4.18;;;2.80;;
80241;SDS011;69556;45.004;7.532;2024-03-02T14:49:05;3.33;;;2.63;;